フランクフルト の空港の天気 - METARとTAF

フランクフルト国際空港 ( EDDF / FRA ) - ドイツ フランクフルト・アム・マイン
飛行場実況気象(Metar)
観測時間05/28 03:20 CEST (05/28 01:20 UTC)
風向・風速北北東 8m/s
視程10km以上
天気現象
なし
気温17℃
湿度63%
気圧1029hPa
METAREDDF 280120Z 02016KT CAVOK 17/10 Q1029 NOSIG
過去の天気等 Google飛行場航空写真 Wunderground天気予報

過去48時間のMETAR

飛行場予報(TAF)
発表時間: 5/28 01:00 CEST (5/27 23:00 UTC)
予報対象時間: 28日2時 CEST ~ 29日8時 CEST
風向・風速北北東 3m/s
視程10km以上
なし
28日4時 CEST ~ 28日7時 CEST に徐々に
風向・風速北北東 5m/s
28日23時 CEST ~ 29日2時 CEST に徐々に
風向・風速北北東 3m/s
TAF EDDF 272300Z 2800/2906 02005KT CAVOK
BECMG 2802/2805 02010KT
BECMG 2821/2824 03005KT